sensor_id;sensor_type;location;lat;lon;timestamp;P1;durP1;ratioP1;P2;durP2;ratioP2
42598;SDS011;28225;42.714;23.860;2023-10-13T00:00:14;3.77;;;2.87;;
42598;SDS011;28225;42.714;23.860;2023-10-13T00:00:40;3.10;;;2.63;;
42598;SDS011;28225;42.714;23.860;2023-10-13T00:00:56;2.92;;;2.42;;
42598;SDS011;28225;42.714;23.860;2023-10-13T00:01:14;3.45;;;2.35;;
42598;SDS011;28225;42.714;23.860;2023-10-13T00:01:30;3.67;;;2.58;;
42598;SDS011;28225;42.714;23.860;2023-10-13T00:01:48;3.50;;;3.00;;
42598;SDS011;28225;42.714;23.860;2023-10-13T00:02:07;5.68;;;3.17;;
42598;SDS011;28225;42.714;23.860;2023-10-13T00:02:23;4.53;;;2.97;;
42598;SDS011;28225;42.714;23.860;2023-10-13T00:02:38;4.47;;;2.88;;
42598;SDS011;28225;42.714;23.860;2023-10-13T00:02:54;4.30;;;2.80;;
42598;SDS011;28225;42.714;23.860;2023-10-13T00:03:11;3.53;;;2.70;;
42598;SDS011;28225;42.714;23.860;2023-10-13T00:03:33;5.13;;;2.67;;
42598;SDS011;28225;42.714;23.860;2023-10-13T00:03:52;4.68;;;2.53;;
42598;SDS011;28225;42.714;23.860;2023-10-13T00:04:08;4.38;;;2.83;;
42598;SDS011;28225;42.714;23.860;2023-10-13T00:04:23;4.20;;;3.20;;
42598;SDS011;28225;42.714;23.860;2023-10-13T00:04:39;3.85;;;3.47;;
42598;SDS011;28225;42.714;23.860;2023-10-13T00:04:57;3.60;;;3.17;;
42598;SDS011;28225;42.714;23.860;2023-10-13T00:05:12;3.77;;;3.00;;
42598;SDS011;28225;42.714;23.860;2023-10-13T00:05:28;3.93;;;2.90;;
42598;SDS011;28225;42.714;23.860;2023-10-13T00:05:45;3.53;;;2.75;;
42598;SDS011;28225;42.714;23.860;2023-10-13T00:06:01;4.10;;;2.90;;
42598;SDS011;28225;42.714;23.860;2023-10-13T00:06:18;4.38;;;3.20;;
42598;SDS011;28225;42.714;23.860;2023-10-13T00:06:33;4.67;;;3.13;;
42598;SDS011;28225;42.714;23.860;2023-10-13T00:06:52;4.18;;;2.95;;
42598;SDS011;28225;42.714;23.860;2023-10-13T00:07:17;3.47;;;3.13;;
42598;SDS011;28225;42.714;23.860;2023-10-13T00:07:33;3.60;;;3.05;;
42598;SDS011;28225;42.714;23.860;2023-10-13T00:07:48;4.50;;;3.20;;
42598;SDS011;28225;42.714;23.860;2023-10-13T00:08:04;3.83;;;3.22;;
42598;SDS011;28225;42.714;23.860;2023-10-13T00:08:20;3.28;;;2.97;;
42598;SDS011;28225;42.714;23.860;2023-10-13T00:08:36;3.80;;;3.00;;
42598;SDS011;28225;42.714;23.860;2023-10-13T00:08:54;5.03;;;3.30;;
42598;SDS011;28225;42.714;23.860;2023-10-13T00:09:10;4.82;;;3.28;;
42598;SDS011;28225;42.714;23.860;2023-10-13T00:09:29;4.07;;;2.63;;
42598;SDS011;28225;42.714;23.860;2023-10-13T00:09:50;3.92;;;2.72;;
42598;SDS011;28225;42.714;23.860;2023-10-13T00:10:05;5.43;;;3.00;;
42598;SDS011;28225;42.714;23.860;2023-10-13T00:10:22;5.22;;;3.05;;
42598;SDS011;28225;42.714;23.860;2023-10-13T00:10:37;3.17;;;2.87;;
42598;SDS011;28225;42.714;23.860;2023-10-13T00:10:53;3.40;;;2.97;;
42598;SDS011;28225;42.714;23.860;2023-10-13T00:11:12;5.38;;;3.45;;
42598;SDS011;28225;42.714;23.860;2023-10-13T00:11:28;4.72;;;3.25;;
42598;SDS011;28225;42.714;23.860;2023-10-13T00:11:43;6.87;;;3.10;;
42598;SDS011;28225;42.714;23.860;2023-10-13T00:11:59;6.68;;;3.40;;
42598;SDS011;28225;42.714;23.860;2023-10-13T00:12:15;4.22;;;3.38;;
42598;SDS011;28225;42.714;23.860;2023-10-13T00:12:35;7.93;;;3.30;;
42598;SDS011;28225;42.714;23.860;2023-10-13T00:12:53;7.60;;;3.47;;
42598;SDS011;28225;42.714;23.860;2023-10-13T00:13:08;3.88;;;3.25;;
42598;SDS011;28225;42.714;23.860;2023-10-13T00:13:34;4.00;;;2.88;;
42598;SDS011;28225;42.714;23.860;2023-10-13T00:14:05;4.32;;;2.83;;
42598;SDS011;28225;42.714;23.860;2023-10-13T00:14:24;2.88;;;2.58;;
42598;SDS011;28225;42.714;23.860;2023-10-13T00:14:48;2.60;;;2.40;;
42598;SDS011;28225;42.714;23.860;2023-10-13T00:15:06;3.08;;;2.25;;
42598;SDS011;28225;42.714;23.860;2023-10-13T00:15:28;4.35;;;2.50;;
42598;SDS011;28225;42.714;23.860;2023-10-13T00:15:46;4.83;;;2.43;;
42598;SDS011;28225;42.714;23.860;2023-10-13T00:16:14;2.45;;;2.20;;
42598;SDS011;28225;42.714;23.860;2023-10-13T00:16:32;2.30;;;2.00;;
42598;SDS011;28225;42.714;23.860;2023-10-13T00:16:49;2.35;;;2.15;;
42598;SDS011;28225;42.714;23.860;2023-10-13T00:17:20;3.58;;;2.15;;
42598;SDS011;28225;42.714;23.860;2023-10-13T00:17:35;3.95;;;2.10;;
42598;SDS011;28225;42.714;23.860;2023-10-13T00:17:53;3.30;;;2.20;;
42598;SDS011;28225;42.714;23.860;2023-10-13T00:18:10;2.30;;;1.85;;
42598;SDS011;28225;42.714;23.860;2023-10-13T00:18:30;2.45;;;1.88;;
42598;SDS011;28225;42.714;23.860;2023-10-13T00:18:49;2.53;;;2.03;;
42598;SDS011;28225;42.714;23.860;2023-10-13T00:19:09;2.63;;;1.85;;
42598;SDS011;28225;42.714;23.860;2023-10-13T00:19:28;2.17;;;1.65;;
42598;SDS011;28225;42.714;23.860;2023-10-13T00:19:52;3.22;;;2.17;;
42598;SDS011;28225;42.714;23.860;2023-10-13T00:20:07;4.27;;;2.20;;
42598;SDS011;28225;42.714;23.860;2023-10-13T00:20:43;2.38;;;1.92;;
42598;SDS011;28225;42.714;23.860;2023-10-13T00:21:04;3.33;;;1.95;;
42598;SDS011;28225;42.714;23.860;2023-10-13T00:21:27;3.90;;;2.47;;
42598;SDS011;28225;42.714;23.860;2023-10-13T00:21:50;3.85;;;2.28;;
42598;SDS011;28225;42.714;23.860;2023-10-13T00:22:06;3.60;;;2.10;;
42598;SDS011;28225;42.714;23.860;2023-10-13T00:22:25;2.42;;;1.98;;
42598;SDS011;28225;42.714;23.860;2023-10-13T00:22:42;3.38;;;2.17;;
42598;SDS011;28225;42.714;23.860;2023-10-13T00:22:59;2.90;;;2.15;;
42598;SDS011;28225;42.714;23.860;2023-10-13T00:23:15;2.70;;;2.15;;
42598;SDS011;28225;42.714;23.860;2023-10-13T00:23:43;2.50;;;2.08;;
42598;SDS011;28225;42.714;23.860;2023-10-13T00:24:08;3.35;;;1.88;;
42598;SDS011;28225;42.714;23.860;2023-10-13T00:24:27;2.17;;;1.95;;
42598;SDS011;28225;42.714;23.860;2023-10-13T00:24:45;1.90;;;1.80;;
42598;SDS011;28225;42.714;23.860;2023-10-13T00:25:01;2.47;;;1.95;;
42598;SDS011;28225;42.714;23.860;2023-10-13T00:25:18;2.75;;;2.03;;
42598;SDS011;28225;42.714;23.860;2023-10-13T00:25:41;3.05;;;2.20;;
42598;SDS011;28225;42.714;23.860;2023-10-13T00:26:05;2.28;;;1.90;;
42598;SDS011;28225;42.714;23.860;2023-10-13T00:26:25;2.28;;;2.08;;
42598;SDS011;28225;42.714;23.860;2023-10-13T00:26:44;2.53;;;2.20;;
42598;SDS011;28225;42.714;23.860;2023-10-13T00:27:00;2.20;;;2.00;;
42598;SDS011;28225;42.714;23.860;2023-10-13T00:27:20;2.35;;;2.00;;
42598;SDS011;28225;42.714;23.860;2023-10-13T00:27:45;3.10;;;2.28;;
42598;SDS011;28225;42.714;23.860;2023-10-13T00:28:02;2.55;;;1.83;;
42598;SDS011;28225;42.714;23.860;2023-10-13T00:28:18;2.25;;;1.90;;
42598;SDS011;28225;42.714;23.860;2023-10-13T00:28:38;2.75;;;2.03;;
42598;SDS011;28225;42.714;23.860;2023-10-13T00:29:02;2.60;;;1.90;;
42598;SDS011;28225;42.714;23.860;2023-10-13T00:29:33;3.33;;;1.98;;
42598;SDS011;28225;42.714;23.860;2023-10-13T00:29:52;2.40;;;1.98;;
42598;SDS011;28225;42.714;23.860;2023-10-13T00:30:27;2.80;;;1.90;;
42598;SDS011;28225;42.714;23.860;2023-10-13T00:30:49;3.35;;;2.03;;
42598;SDS011;28225;42.714;23.860;2023-10-13T00:31:07;3.55;;;2.17;;
42598;SDS011;28225;42.714;23.860;2023-10-13T00:31:27;4.53;;;2.13;;
42598;SDS011;28225;42.714;23.860;2023-10-13T00:31:51;3.10;;;1.85;;
42598;SDS011;28225;42.714;23.860;2023-10-13T00:32:07;2.85;;;2.17;;
42598;SDS011;28225;42.714;23.860;2023-10-13T00:32:27;2.50;;;2.30;;
42598;SDS011;28225;42.714;23.860;2023-10-13T00:32:43;2.77;;;2.27;;
42598;SDS011;28225;42.714;23.860;2023-10-13T00:32:59;2.40;;;1.95;;
42598;SDS011;28225;42.714;23.860;2023-10-13T00:33:15;2.17;;;1.92;;
42598;SDS011;28225;42.714;23.860;2023-10-13T00:33:35;3.30;;;2.42;;
42598;SDS011;28225;42.714;23.860;2023-10-13T00:33:51;3.22;;;2.45;;
42598;SDS011;28225;42.714;23.860;2023-10-13T00:34:10;2.92;;;2.20;;
42598;SDS011;28225;42.714;23.860;2023-10-13T00:34:27;2.25;;;1.88;;
42598;SDS011;28225;42.714;23.860;2023-10-13T00:34:42;2.30;;;1.80;;
42598;SDS011;28225;42.714;23.860;2023-10-13T00:34:58;2.83;;;2.37;;
42598;SDS011;28225;42.714;23.860;2023-10-13T00:35:13;4.10;;;2.70;;
42598;SDS011;28225;42.714;23.860;2023-10-13T00:35:43;4.57;;;2.72;;
42598;SDS011;28225;42.714;23.860;2023-10-13T00:35:59;3.75;;;2.50;;
42598;SDS011;28225;42.714;23.860;2023-10-13T00:36:16;2.60;;;2.28;;
42598;SDS011;28225;42.714;23.860;2023-10-13T00:36:34;3.13;;;2.25;;
42598;SDS011;28225;42.714;23.860;2023-10-13T00:36:49;3.50;;;2.50;;
42598;SDS011;28225;42.714;23.860;2023-10-13T00:37:24;3.70;;;2.60;;
42598;SDS011;28225;42.714;23.860;2023-10-13T00:37:43;3.10;;;2.55;;
42598;SDS011;28225;42.714;23.860;2023-10-13T00:37:59;3.22;;;2.60;;
42598;SDS011;28225;42.714;23.860;2023-10-13T00:38:19;4.38;;;2.97;;
42598;SDS011;28225;42.714;23.860;2023-10-13T00:38:34;4.23;;;2.90;;
42598;SDS011;28225;42.714;23.860;2023-10-13T00:38:50;3.17;;;2.65;;
42598;SDS011;28225;42.714;23.860;2023-10-13T00:39:07;3.20;;;2.58;;
42598;SDS011;28225;42.714;23.860;2023-10-13T00:39:22;3.63;;;2.70;;
42598;SDS011;28225;42.714;23.860;2023-10-13T00:39:38;2.67;;;2.25;;
42598;SDS011;28225;42.714;23.860;2023-10-13T00:40:00;3.80;;;2.60;;
42598;SDS011;28225;42.714;23.860;2023-10-13T00:40:23;3.72;;;2.63;;
42598;SDS011;28225;42.714;23.860;2023-10-13T00:40:45;3.53;;;2.72;;
42598;SDS011;28225;42.714;23.860;2023-10-13T00:41:06;3.22;;;2.60;;
42598;SDS011;28225;42.714;23.860;2023-10-13T00:41:49;2.78;;;2.58;;
42598;SDS011;28225;42.714;23.860;2023-10-13T00:42:12;3.13;;;2.45;;
42598;SDS011;28225;42.714;23.860;2023-10-13T00:42:34;3.35;;;2.42;;
42598;SDS011;28225;42.714;23.860;2023-10-13T00:43:06;3.15;;;2.40;;
42598;SDS011;28225;42.714;23.860;2023-10-13T00:43:33;3.65;;;2.70;;
42598;SDS011;28225;42.714;23.860;2023-10-13T00:43:59;4.72;;;2.83;;
42598;SDS011;28225;42.714;23.860;2023-10-13T00:44:22;4.20;;;2.60;;
42598;SDS011;28225;42.714;23.860;2023-10-13T00:44:52;2.72;;;2.20;;
42598;SDS011;28225;42.714;23.860;2023-10-13T00:45:09;3.65;;;2.50;;
42598;SDS011;28225;42.714;23.860;2023-10-13T00:45:32;3.70;;;2.60;;
42598;SDS011;28225;42.714;23.860;2023-10-13T00:45:58;3.58;;;2.35;;
42598;SDS011;28225;42.714;23.860;2023-10-13T00:46:23;3.50;;;2.65;;
42598;SDS011;28225;42.714;23.860;2023-10-13T00:46:48;3.80;;;2.67;;
42598;SDS011;28225;42.714;23.860;2023-10-13T00:47:09;3.38;;;2.45;;
42598;SDS011;28225;42.714;23.860;2023-10-13T00:47:31;2.83;;;2.13;;
42598;SDS011;28225;42.714;23.860;2023-10-13T00:48:03;2.67;;;1.90;;
42598;SDS011;28225;42.714;23.860;2023-10-13T00:48:28;2.17;;;1.63;;
42598;SDS011;28225;42.714;23.860;2023-10-13T00:48:48;2.35;;;1.83;;
42598;SDS011;28225;42.714;23.860;2023-10-13T00:49:07;3.38;;;2.55;;
42598;SDS011;28225;42.714;23.860;2023-10-13T00:49:24;5.00;;;2.47;;
42598;SDS011;28225;42.714;23.860;2023-10-13T00:49:39;4.07;;;1.97;;
42598;SDS011;28225;42.714;23.860;2023-10-13T00:49:55;2.90;;;1.95;;
42598;SDS011;28225;42.714;23.860;2023-10-13T00:50:11;3.35;;;1.80;;
42598;SDS011;28225;42.714;23.860;2023-10-13T00:50:30;2.33;;;2.00;;
42598;SDS011;28225;42.714;23.860;2023-10-13T00:50:45;2.55;;;2.05;;
42598;SDS011;28225;42.714;23.860;2023-10-13T00:51:03;2.78;;;1.88;;
42598;SDS011;28225;42.714;23.860;2023-10-13T00:51:23;2.40;;;1.75;;
42598;SDS011;28225;42.714;23.860;2023-10-13T00:51:49;4.13;;;2.03;;
42598;SDS011;28225;42.714;23.860;2023-10-13T00:52:05;3.40;;;1.80;;
42598;SDS011;28225;42.714;23.860;2023-10-13T00:52:21;1.55;;;1.42;;
42598;SDS011;28225;42.714;23.860;2023-10-13T00:52:37;1.93;;;1.83;;
42598;SDS011;28225;42.714;23.860;2023-10-13T00:52:56;2.13;;;1.90;;
42598;SDS011;28225;42.714;23.860;2023-10-13T00:53:11;2.83;;;1.98;;
42598;SDS011;28225;42.714;23.860;2023-10-13T00:53:27;2.83;;;2.13;;
42598;SDS011;28225;42.714;23.860;2023-10-13T00:53:44;2.17;;;1.98;;
42598;SDS011;28225;42.714;23.860;2023-10-13T00:54:00;2.40;;;2.20;;
42598;SDS011;28225;42.714;23.860;2023-10-13T00:54:22;2.92;;;2.05;;
42598;SDS011;28225;42.714;23.860;2023-10-13T00:54:42;2.10;;;1.90;;
42598;SDS011;28225;42.714;23.860;2023-10-13T00:55:02;2.17;;;1.80;;
42598;SDS011;28225;42.714;23.860;2023-10-13T00:55:19;2.40;;;1.83;;
42598;SDS011;28225;42.714;23.860;2023-10-13T00:55:37;2.42;;;1.85;;
42598;SDS011;28225;42.714;23.860;2023-10-13T00:55:56;2.53;;;1.98;;
42598;SDS011;28225;42.714;23.860;2023-10-13T00:56:12;2.00;;;1.80;;
42598;SDS011;28225;42.714;23.860;2023-10-13T00:56:33;2.10;;;1.90;;
42598;SDS011;28225;42.714;23.860;2023-10-13T00:56:55;2.58;;;2.03;;
42598;SDS011;28225;42.714;23.860;2023-10-13T00:57:27;2.22;;;2.03;;
42598;SDS011;28225;42.714;23.860;2023-10-13T00:57:43;3.47;;;1.95;;
42598;SDS011;28225;42.714;23.860;2023-10-13T00:58:01;3.10;;;1.70;;
42598;SDS011;28225;42.714;23.860;2023-10-13T00:58:18;2.78;;;2.15;;
42598;SDS011;28225;42.714;23.860;2023-10-13T00:58:37;2.95;;;2.28;;
42598;SDS011;28225;42.714;23.860;2023-10-13T00:58:54;4.30;;;2.17;;
42598;SDS011;28225;42.714;23.860;2023-10-13T00:59:14;3.78;;;2.08;;
42598;SDS011;28225;42.714;23.860;2023-10-13T00:59:38;3.58;;;1.90;;
42598;SDS011;28225;42.714;23.860;2023-10-13T00:59:56;3.15;;;2.00;;
42598;SDS011;28225;42.714;23.860;2023-10-13T01:00:12;3.13;;;2.08;;
42598;SDS011;28225;42.714;23.860;2023-10-13T01:00:34;3.08;;;2.28;;
42598;SDS011;28225;42.714;23.860;2023-10-13T01:01:01;1.95;;;1.75;;
42598;SDS011;28225;42.714;23.860;2023-10-13T01:01:35;2.70;;;1.90;;
42598;SDS011;28225;42.714;23.860;2023-10-13T01:01:51;2.28;;;1.77;;
42598;SDS011;28225;42.714;23.860;2023-10-13T01:02:10;1.70;;;1.60;;
42598;SDS011;28225;42.714;23.860;2023-10-13T01:03:04;2.20;;;2.00;;
42598;SDS011;28225;42.714;23.860;2023-10-13T01:03:23;2.75;;;2.22;;
42598;SDS011;28225;42.714;23.860;2023-10-13T01:03:41;2.42;;;2.00;;
42598;SDS011;28225;42.714;23.860;2023-10-13T01:03:57;2.00;;;1.83;;
42598;SDS011;28225;42.714;23.860;2023-10-13T01:04:15;2.25;;;1.85;;
42598;SDS011;28225;42.714;23.860;2023-10-13T01:04:34;3.28;;;2.00;;
42598;SDS011;28225;42.714;23.860;2023-10-13T01:04:50;2.92;;;1.95;;
42598;SDS011;28225;42.714;23.860;2023-10-13T01:05:05;2.92;;;2.05;;
42598;SDS011;28225;42.714;23.860;2023-10-13T01:05:35;2.90;;;2.17;;
42598;SDS011;28225;42.714;23.860;2023-10-13T01:05:55;2.63;;;1.95;;
42598;SDS011;28225;42.714;23.860;2023-10-13T01:06:14;2.63;;;2.13;;
42598;SDS011;28225;42.714;23.860;2023-10-13T01:06:32;2.38;;;2.17;;
42598;SDS011;28225;42.714;23.860;2023-10-13T01:06:49;2.60;;;2.40;;
42598;SDS011;28225;42.714;23.860;2023-10-13T01:07:06;2.50;;;2.30;;
42598;SDS011;28225;42.714;23.860;2023-10-13T01:07:22;2.03;;;1.88;;
42598;SDS011;28225;42.714;23.860;2023-10-13T01:07:39;1.65;;;1.52;;
42598;SDS011;28225;42.714;23.860;2023-10-13T01:07:54;2.20;;;1.63;;
42598;SDS011;28225;42.714;23.860;2023-10-13T01:08:11;2.88;;;2.13;;
42598;SDS011;28225;42.714;23.860;2023-10-13T01:08:33;2.42;;;2.17;;
42598;SDS011;28225;42.714;23.860;2023-10-13T01:09:11;2.25;;;2.15;;
42598;SDS011;28225;42.714;23.860;2023-10-13T01:09:28;2.88;;;2.33;;
42598;SDS011;28225;42.714;23.860;2023-10-13T01:09:43;2.35;;;2.15;;
42598;SDS011;28225;42.714;23.860;2023-10-13T01:09:59;2.50;;;2.10;;
42598;SDS011;28225;42.714;23.860;2023-10-13T01:10:14;4.20;;;2.00;;
42598;SDS011;28225;42.714;23.860;2023-10-13T01:10:30;3.55;;;1.85;;
42598;SDS011;28225;42.714;23.860;2023-10-13T01:10:47;2.08;;;1.88;;
42598;SDS011;28225;42.714;23.860;2023-10-13T01:11:04;1.92;;;1.83;;
42598;SDS011;28225;42.714;23.860;2023-10-13T01:11:23;2.17;;;1.77;;
42598;SDS011;28225;42.714;23.860;2023-10-13T01:11:39;2.22;;;1.90;;
42598;SDS011;28225;42.714;23.860;2023-10-13T01:11:57;2.08;;;1.90;;
42598;SDS011;28225;42.714;23.860;2023-10-13T01:12:15;3.15;;;1.95;;
42598;SDS011;28225;42.714;23.860;2023-10-13T01:12:31;2.90;;;2.10;;
42598;SDS011;28225;42.714;23.860;2023-10-13T01:12:46;2.13;;;1.93;;
42598;SDS011;28225;42.714;23.860;2023-10-13T01:13:02;1.88;;;1.70;;
42598;SDS011;28225;42.714;23.860;2023-10-13T01:13:17;1.60;;;1.50;;
42598;SDS011;28225;42.714;23.860;2023-10-13T01:13:33;2.43;;;1.87;;
42598;SDS011;28225;42.714;23.860;2023-10-13T01:13:52;2.80;;;2.05;;
42598;SDS011;28225;42.714;23.860;2023-10-13T01:14:09;1.90;;;1.67;;
42598;SDS011;28225;42.714;23.860;2023-10-13T01:14:26;1.52;;;1.42;;
42598;SDS011;28225;42.714;23.860;2023-10-13T01:14:44;2.63;;;1.85;;
42598;SDS011;28225;42.714;23.860;2023-10-13T01:14:59;2.93;;;2.03;;
42598;SDS011;28225;42.714;23.860;2023-10-13T01:15:22;2.45;;;2.22;;
42598;SDS011;28225;42.714;23.860;2023-10-13T01:15:44;2.42;;;2.03;;
42598;SDS011;28225;42.714;23.860;2023-10-13T01:16:02;2.47;;;1.83;;
42598;SDS011;28225;42.714;23.860;2023-10-13T01:16:22;3.15;;;1.80;;
42598;SDS011;28225;42.714;23.860;2023-10-13T01:16:41;3.03;;;1.90;;
42598;SDS011;28225;42.714;23.860;2023-10-13T01:17:01;2.55;;;2.03;;
42598;SDS011;28225;42.714;23.860;2023-10-13T01:17:16;2.25;;;1.95;;
42598;SDS011;28225;42.714;23.860;2023-10-13T01:17:33;1.92;;;1.75;;
42598;SDS011;28225;42.714;23.860;2023-10-13T01:17:48;3.10;;;2.00;;
42598;SDS011;28225;42.714;23.860;2023-10-13T01:18:07;3.43;;;1.90;;
42598;SDS011;28225;42.714;23.860;2023-10-13T01:18:27;2.90;;;1.92;;
42598;SDS011;28225;42.714;23.860;2023-10-13T01:18:43;3.08;;;1.90;;
42598;SDS011;28225;42.714;23.860;2023-10-13T01:19:04;1.75;;;1.63;;
42598;SDS011;28225;42.714;23.860;2023-10-13T01:19:20;1.55;;;1.45;;
42598;SDS011;28225;42.714;23.860;2023-10-13T01:19:39;2.72;;;1.70;;
42598;SDS011;28225;42.714;23.860;2023-10-13T01:19:57;2.22;;;1.88;;
42598;SDS011;28225;42.714;23.860;2023-10-13T01:20:14;1.97;;;1.73;;
42598;SDS011;28225;42.714;23.860;2023-10-13T01:20:39;2.22;;;2.03;;
42598;SDS011;28225;42.714;23.860;2023-10-13T01:21:04;2.30;;;2.05;;
42598;SDS011;28225;42.714;23.860;2023-10-13T01:21:19;3.00;;;2.25;;
42598;SDS011;28225;42.714;23.860;2023-10-13T01:21:35;5.05;;;2.33;;
42598;SDS011;28225;42.714;23.860;2023-10-13T01:21:51;5.07;;;2.20;;
42598;SDS011;28225;42.714;23.860;2023-10-13T01:22:17;2.33;;;2.10;;
42598;SDS011;28225;42.714;23.860;2023-10-13T01:22:36;2.30;;;2.05;;
42598;SDS011;28225;42.714;23.860;2023-10-13T01:22:51;2.60;;;2.13;;
42598;SDS011;28225;42.714;23.860;2023-10-13T01:23:14;3.00;;;2.05;;
42598;SDS011;28225;42.714;23.860;2023-10-13T01:23:39;2.40;;;2.00;;
42598;SDS011;28225;42.714;23.860;2023-10-13T01:23:57;2.30;;;2.08;;
42598;SDS011;28225;42.714;23.860;2023-10-13T01:24:13;2.63;;;1.90;;
42598;SDS011;28225;42.714;23.860;2023-10-13T01:24:32;3.03;;;2.13;;
42598;SDS011;28225;42.714;23.860;2023-10-13T01:24:51;2.67;;;2.47;;
42598;SDS011;28225;42.714;23.860;2023-10-13T01:25:06;2.53;;;2.33;;
42598;SDS011;28225;42.714;23.860;2023-10-13T01:25:27;2.35;;;2.15;;
42598;SDS011;28225;42.714;23.860;2023-10-13T01:25:43;2.45;;;2.10;;
42598;SDS011;28225;42.714;23.860;2023-10-13T01:25:59;3.05;;;2.40;;
42598;SDS011;28225;42.714;23.860;2023-10-13T01:26:19;2.97;;;2.20;;
42598;SDS011;28225;42.714;23.860;2023-10-13T01:26:41;1.90;;;1.80;;
42598;SDS011;28225;42.714;23.860;2023-10-13T01:26:57;2.38;;;2.17;;
42598;SDS011;28225;42.714;23.860;2023-10-13T01:27:18;2.47;;;2.28;;
42598;SDS011;28225;42.714;23.860;2023-10-13T01:27:36;2.15;;;1.95;;
42598;SDS011;28225;42.714;23.860;2023-10-13T01:27:53;2.17;;;1.98;;
42598;SDS011;28225;42.714;23.860;2023-10-13T01:28:09;2.50;;;2.17;;
42598;SDS011;28225;42.714;23.860;2023-10-13T01:28:24;2.17;;;1.97;;
42598;SDS011;28225;42.714;23.860;2023-10-13T01:28:40;2.08;;;1.88;;
42598;SDS011;28225;42.714;23.860;2023-10-13T01:29:01;2.47;;;2.10;;
42598;SDS011;28225;42.714;23.860;2023-10-13T01:29:17;2.05;;;1.83;;
42598;SDS011;28225;42.714;23.860;2023-10-13T01:29:34;2.13;;;1.90;;
42598;SDS011;28225;42.714;23.860;2023-10-13T01:29:49;2.42;;;2.10;;
42598;SDS011;28225;42.714;23.860;2023-10-13T01:30:06;2.67;;;2.10;;
42598;SDS011;28225;42.714;23.860;2023-10-13T01:30:37;2.28;;;2.03;;
42598;SDS011;28225;42.714;23.860;2023-10-13T01:30:54;4.22;;;2.90;;
42598;SDS011;28225;42.714;23.860;2023-10-13T01:31:10;3.58;;;2.88;;
42598;SDS011;28225;42.714;23.860;2023-10-13T01:31:41;5.90;;;2.13;;
42598;SDS011;28225;42.714;23.860;2023-10-13T01:32:00;2.20;;;1.90;;
42598;SDS011;28225;42.714;23.860;2023-10-13T01:32:17;2.03;;;1.83;;
42598;SDS011;28225;42.714;23.860;2023-10-13T01:32:33;2.22;;;2.03;;
42598;SDS011;28225;42.714;23.860;2023-10-13T01:32:49;2.37;;;2.17;;
42598;SDS011;28225;42.714;23.860;2023-10-13T01:33:06;2.60;;;2.40;;
42598;SDS011;28225;42.714;23.860;2023-10-13T01:33:24;2.83;;;2.40;;
42598;SDS011;28225;42.714;23.860;2023-10-13T01:33:42;2.63;;;2.30;;
42598;SDS011;28225;42.714;23.860;2023-10-13T01:33:58;2.53;;;2.33;;
42598;SDS011;28225;42.714;23.860;2023-10-13T01:34:16;2.55;;;2.33;;
42598;SDS011;28225;42.714;23.860;2023-10-13T01:34:38;2.30;;;1.90;;
42598;SDS011;28225;42.714;23.860;2023-10-13T01:34:54;2.27;;;2.07;;
42598;SDS011;28225;42.714;23.860;2023-10-13T01:35:10;2.85;;;2.20;;
42598;SDS011;28225;42.714;23.860;2023-10-13T01:35:26;4.23;;;2.10;;
42598;SDS011;28225;42.714;23.860;2023-10-13T01:35:50;2.42;;;2.08;;
42598;SDS011;28225;42.714;23.860;2023-10-13T01:36:05;3.28;;;2.20;;
42598;SDS011;28225;42.714;23.860;2023-10-13T01:36:27;2.67;;;2.10;;
42598;SDS011;28225;42.714;23.860;2023-10-13T01:36:43;2.25;;;2.05;;
42598;SDS011;28225;42.714;23.860;2023-10-13T01:36:59;2.22;;;2.03;;
42598;SDS011;28225;42.714;23.860;2023-10-13T01:37:21;2.38;;;2.17;;
42598;SDS011;28225;42.714;23.860;2023-10-13T01:37:37;2.40;;;2.17;;
42598;SDS011;28225;42.714;23.860;2023-10-13T01:37:52;3.03;;;2.20;;
42598;SDS011;28225;42.714;23.860;2023-10-13T01:38:08;3.50;;;2.15;;
42598;SDS011;28225;42.714;23.860;2023-10-13T01:38:24;2.83;;;1.92;;
42598;SDS011;28225;42.714;23.860;2023-10-13T01:38:43;2.40;;;1.83;;
42598;SDS011;28225;42.714;23.860;2023-10-13T01:38:58;2.40;;;2.08;;
42598;SDS011;28225;42.714;23.860;2023-10-13T01:39:16;2.50;;;2.30;;
42598;SDS011;28225;42.714;23.860;2023-10-13T01:39:32;2.65;;;2.35;;
42598;SDS011;28225;42.714;23.860;2023-10-13T01:39:48;3.27;;;2.33;;
42598;SDS011;28225;42.714;23.860;2023-10-13T01:40:04;2.72;;;2.00;;
42598;SDS011;28225;42.714;23.860;2023-10-13T01:40:20;2.85;;;2.10;;
42598;SDS011;28225;42.714;23.860;2023-10-13T01:40:35;2.78;;;2.20;;
42598;SDS011;28225;42.714;23.860;2023-10-13T01:40:51;2.37;;;2.00;;
42598;SDS011;28225;42.714;23.860;2023-10-13T01:41:06;3.42;;;1.90;;
42598;SDS011;28225;42.714;23.860;2023-10-13T01:41:23;3.55;;;1.83;;
42598;SDS011;28225;42.714;23.860;2023-10-13T01:41:39;2.07;;;1.83;;
42598;SDS011;28225;42.714;23.860;2023-10-13T01:41:55;2.50;;;1.90;;
42598;SDS011;28225;42.714;23.860;2023-10-13T01:42:10;2.45;;;1.90;;
42598;SDS011;28225;42.714;23.860;2023-10-13T01:42:29;2.28;;;2.08;;
42598;SDS011;28225;42.714;23.860;2023-10-13T01:42:45;2.30;;;2.10;;
42598;SDS011;28225;42.714;23.860;2023-10-13T01:43:01;2.40;;;2.05;;
42598;SDS011;28225;42.714;23.860;2023-10-13T01:43:19;2.63;;;2.13;;
42598;SDS011;28225;42.714;23.860;2023-10-13T01:43:34;2.65;;;2.28;;
42598;SDS011;28225;42.714;23.860;2023-10-13T01:43:50;3.17;;;2.30;;
42598;SDS011;28225;42.714;23.860;2023-10-13T01:44:05;2.87;;;2.00;;
42598;SDS011;28225;42.714;23.860;2023-10-13T01:44:21;2.35;;;2.00;;
42598;SDS011;28225;42.714;23.860;2023-10-13T01:44:37;3.28;;;2.30;;
42598;SDS011;28225;42.714;23.860;2023-10-13T01:44:53;3.10;;;2.10;;
42598;SDS011;28225;42.714;23.860;2023-10-13T01:45:20;2.70;;;2.40;;
42598;SDS011;28225;42.714;23.860;2023-10-13T01:45:38;2.72;;;2.20;;
42598;SDS011;28225;42.714;23.860;2023-10-13T01:46:04;3.03;;;2.03;;
42598;SDS011;28225;42.714;23.860;2023-10-13T01:46:20;2.15;;;1.95;;
42598;SDS011;28225;42.714;23.860;2023-10-13T01:46:37;2.65;;;2.20;;
42598;SDS011;28225;42.714;23.860;2023-10-13T01:46:53;2.65;;;2.00;;
42598;SDS011;28225;42.714;23.860;2023-10-13T01:47:09;2.88;;;2.00;;
42598;SDS011;28225;42.714;23.860;2023-10-13T01:47:24;2.93;;;1.90;;
42598;SDS011;28225;42.714;23.860;2023-10-13T01:47:42;2.13;;;1.70;;
42598;SDS011;28225;42.714;23.860;2023-10-13T01:48:00;2.58;;;1.92;;
42598;SDS011;28225;42.714;23.860;2023-10-13T01:48:16;2.03;;;1.83;;
42598;SDS011;28225;42.714;23.860;2023-10-13T01:48:33;1.98;;;1.75;;
42598;SDS011;28225;42.714;23.860;2023-10-13T01:48:53;2.38;;;1.80;;
42598;SDS011;28225;42.714;23.860;2023-10-13T01:49:09;1.65;;;1.55;;
42598;SDS011;28225;42.714;23.860;2023-10-13T01:49:25;1.80;;;1.70;;
42598;SDS011;28225;42.714;23.860;2023-10-13T01:49:40;2.50;;;1.90;;
42598;SDS011;28225;42.714;23.860;2023-10-13T01:50:02;3.13;;;2.00;;
42598;SDS011;28225;42.714;23.860;2023-10-13T01:50:28;1.70;;;1.55;;
42598;SDS011;28225;42.714;23.860;2023-10-13T01:50:47;1.85;;;1.55;;
42598;SDS011;28225;42.714;23.860;2023-10-13T01:51:14;2.40;;;1.80;;
42598;SDS011;28225;42.714;23.860;2023-10-13T01:51:30;2.23;;;1.70;;
42598;SDS011;28225;42.714;23.860;2023-10-13T01:51:45;1.67;;;1.57;;
42598;SDS011;28225;42.714;23.860;2023-10-13T01:52:02;2.47;;;1.75;;
42598;SDS011;28225;42.714;23.860;2023-10-13T01:52:18;1.90;;;1.70;;
42598;SDS011;28225;42.714;23.860;2023-10-13T01:52:34;1.80;;;1.70;;
42598;SDS011;28225;42.714;23.860;2023-10-13T01:52:50;1.97;;;1.83;;